createdAt,value
2019-05-01T00:01:19.005Z,99.90
2019-05-01T00:04:10.135Z,99.90
2019-05-01T00:07:12.446Z,99.90
2019-05-01T00:12:00.757Z,99.90
2019-05-01T00:13:19.735Z,99.90
2019-05-01T00:16:16.010Z,99.90
2019-05-01T00:18:53.953Z,99.90
2019-05-01T00:21:40.867Z,99.90
2019-05-01T00:24:59.067Z,99.90
2019-05-01T00:28:06.365Z,99.90
2019-05-01T00:30:58.265Z,99.90
2019-05-01T00:37:12.287Z,99.90
2019-05-01T00:40:09.941Z,99.90
2019-05-01T00:47:34.300Z,99.90
2019-05-01T00:50:00.500Z,99.90
2019-05-01T00:53:19.057Z,99.90
2019-05-01T00:56:29.067Z,99.90
2019-05-01T00:59:36.955Z,99.90
2019-05-01T01:16:46.796Z,99.90
2019-05-01T01:20:31.767Z,99.90
2019-05-01T01:30:13.894Z,99.90
2019-05-01T01:34:13.173Z,99.90
2019-05-01T01:36:50.268Z,99.90
2019-05-01T01:43:17.954Z,99.90
2019-05-01T01:46:32.926Z,99.90
2019-05-01T01:49:13.649Z,99.90
2019-05-01T01:53:34.226Z,99.90
2019-05-01T01:54:36.253Z,99.90
2019-05-01T01:57:55.210Z,99.90
2019-05-01T02:01:19.982Z,99.90
2019-05-01T02:04:14.230Z,99.90
2019-05-01T02:06:54.234Z,99.90
2019-05-01T02:12:37.668Z,99.90
2019-05-01T02:15:52.854Z,99.90
2019-05-01T02:21:50.557Z,99.90
2019-05-01T02:25:14.559Z,99.90
2019-05-01T02:28:16.545Z,99.90
2019-05-01T02:31:27.259Z,99.90
2019-05-01T02:34:47.161Z,99.90
2019-05-01T02:39:26.331Z,99.90
2019-05-01T02:40:29.324Z,99.90
2019-05-01T02:43:03.077Z,99.90
2019-05-01T02:47:31.849Z,99.90
2019-05-01T02:49:25.367Z,99.90
2019-05-01T02:52:26.455Z,99.90
2019-05-01T02:54:50.350Z,99.90
2019-05-01T02:57:28.640Z,99.90
2019-05-01T03:00:04.335Z,99.90
2019-05-01T03:02:39.741Z,99.90
2019-05-01T03:05:10.070Z,99.90
2019-05-01T03:07:50.013Z,99.90
2019-05-01T03:10:22.683Z,99.90
2019-05-01T03:17:14.773Z,99.90
2019-05-01T03:19:15.989Z,99.90
2019-05-01T03:22:04.544Z,99.90
2019-05-01T03:25:00.573Z,99.90
2019-05-01T03:28:35.195Z,99.90
2019-05-01T03:31:02.836Z,99.90
2019-05-01T03:33:59.214Z,99.90
2019-05-01T03:36:32.611Z,99.90
2019-05-01T03:39:06.362Z,99.90
2019-05-01T03:41:58.201Z,99.90
2019-05-01T03:44:28.212Z,99.90
2019-05-01T03:47:28.699Z,99.90
2019-05-01T03:50:13.241Z,99.90
2019-05-01T03:53:11.810Z,99.90
2019-05-01T03:55:38.604Z,99.90
2019-05-01T03:58:11.969Z,99.90
2019-05-01T04:01:26.044Z,99.90
2019-05-01T04:04:30.680Z,99.90
2019-05-01T04:09:58.241Z,99.90
2019-05-01T04:13:18.523Z,99.90
2019-05-01T04:17:04.326Z,99.90
2019-05-01T04:18:16.562Z,99.90
2019-05-01T04:21:25.773Z,99.90
2019-05-01T04:23:44.238Z,99.90
2019-05-01T04:26:58.451Z,99.90
2019-05-01T04:29:59.081Z,99.90
2019-05-01T04:32:31.401Z,99.90
2019-05-01T04:35:28.462Z,99.90
2019-05-01T04:38:06.857Z,99.90
2019-05-01T04:44:07.116Z,99.90
2019-05-01T04:49:41.679Z,99.90
2019-05-01T04:50:19.478Z,99.90
2019-05-01T04:52:43.351Z,99.90
2019-05-01T04:55:23.961Z,99.90
2019-05-01T04:58:00.487Z,99.90
2019-05-01T05:03:45.053Z,99.90
2019-05-01T05:06:15.219Z,99.90
2019-05-01T05:10:26.547Z,99.90
2019-05-01T05:11:48.228Z,99.90
2019-05-01T05:19:14.957Z,99.90
2019-05-01T05:21:28.196Z,99.90
2019-05-01T05:23:41.082Z,99.90
2019-05-01T05:26:10.778Z,99.90
2019-05-01T05:28:40.687Z,99.90
2019-05-01T05:31:10.961Z,99.90
2019-05-01T05:33:42.230Z,99.90
2019-05-01T05:36:14.026Z,99.90
2019-05-01T05:39:07.551Z,99.90
2019-05-01T05:41:38.966Z,99.90
2019-05-01T05:44:08.716Z,99.90
2019-05-01T05:46:38.198Z,99.90
2019-05-01T05:49:07.832Z,99.90
2019-05-01T05:51:44.421Z,99.90
2019-05-01T05:54:33.370Z,99.90
2019-05-01T05:57:12.368Z,99.90
2019-05-01T05:59:46.938Z,99.90
2019-05-01T06:02:30.952Z,99.90
2019-05-01T06:05:25.242Z,99.90
2019-05-01T06:08:15.024Z,99.90
2019-05-01T06:11:05.490Z,99.90
2019-05-01T06:14:12.408Z,99.90
2019-05-01T06:16:54.767Z,99.90
2019-05-01T06:19:49.754Z,99.90
2019-05-01T06:22:24.069Z,99.90
2019-05-01T06:24:59.479Z,99.90
2019-05-01T06:27:29.378Z,99.90
2019-05-01T06:30:00.928Z,99.90
2019-05-01T06:32:33.622Z,99.90
2019-05-01T06:35:02.986Z,99.90
2019-05-01T06:37:56.055Z,99.90
2019-05-01T06:40:38.615Z,99.90
2019-05-01T06:43:14.314Z,99.90
2019-05-01T06:45:51.676Z,99.90
2019-05-01T06:48:20.601Z,99.90
2019-05-01T06:50:56.287Z,99.90
2019-05-01T06:53:26.555Z,99.90
2019-05-01T06:55:56.362Z,99.90
2019-05-01T06:58:26.130Z,99.90
2019-05-01T07:00:55.774Z,99.90
2019-05-01T07:03:25.479Z,99.90
2019-05-01T07:05:56.279Z,99.90
2019-05-01T07:08:29.442Z,99.90
2019-05-01T07:10:57.571Z,99.90
2019-05-01T07:13:27.125Z,99.90
2019-05-01T07:15:58.697Z,99.90
2019-05-01T07:18:29.128Z,99.90
2019-05-01T07:20:58.783Z,99.90
2019-05-01T07:23:28.524Z,99.90
2019-05-01T07:25:58.116Z,99.90
2019-05-01T07:28:34.085Z,99.90
2019-05-01T07:31:05.205Z,99.90
2019-05-01T07:33:34.234Z,99.90
2019-05-01T07:36:06.967Z,99.90
2019-05-01T07:38:38.882Z,99.90
2019-05-01T07:41:12.186Z,99.90
2019-05-01T07:43:59.687Z,99.90
2019-05-01T07:46:34.776Z,99.90
2019-05-01T07:49:04.875Z,99.90
2019-05-01T07:51:37.796Z,99.90
2019-05-01T07:54:09.494Z,99.90
2019-05-01T07:56:38.981Z,99.90
2019-05-01T07:59:10.557Z,99.90
2019-05-01T08:01:49.889Z,99.90
2019-05-01T08:04:35.302Z,99.90
2019-05-01T08:06:52.015Z,99.90
2019-05-01T08:09:21.967Z,99.90
2019-05-01T08:11:51.397Z,99.90
2019-05-01T08:14:20.829Z,99.90
2019-05-01T08:16:50.385Z,99.90
2019-05-01T08:19:34.777Z,99.90
2019-05-01T08:22:11.289Z,99.90
2019-05-01T08:24:40.822Z,99.90
2019-05-01T08:27:20.243Z,99.90
2019-05-01T08:30:05.785Z,99.90
2019-05-01T08:32:48.555Z,99.90
2019-05-01T08:35:19.724Z,99.90
2019-05-01T08:37:49.194Z,99.90
2019-05-01T08:40:20.554Z,99.90
2019-05-01T08:42:49.958Z,99.90
2019-05-01T08:45:40.801Z,98.00
2019-05-01T08:48:37.591Z,97.60
2019-05-01T08:51:07.045Z,98.10
2019-05-01T08:53:36.546Z,97.60
2019-05-01T08:56:06.075Z,96.80
2019-05-01T08:58:35.543Z,97.00
2019-05-01T09:01:05.702Z,96.40
2019-05-01T09:03:35.167Z,95.40
2019-05-01T09:06:04.730Z,95.70
2019-05-01T09:08:34.218Z,95.10
2019-05-01T09:11:03.735Z,94.80
2019-05-01T09:13:33.215Z,95.70
2019-05-01T09:16:05.069Z,94.30
2019-05-01T09:18:34.521Z,94.70
2019-05-01T09:21:04.016Z,94.50
2019-05-01T09:23:34.580Z,94.90
2019-05-01T09:26:31.978Z,95.10
2019-05-01T09:29:05.092Z,96.10
2019-05-01T09:31:35.552Z,96.70
2019-05-01T09:34:05.803Z,95.60
2019-05-01T09:36:35.553Z,94.80
2019-05-01T09:39:06.437Z,94.80
2019-05-01T09:41:38.568Z,94.40
2019-05-01T09:44:10.777Z,95.40
2019-05-01T09:46:38.610Z,95.90
2019-05-01T09:49:08.328Z,96.10
2019-05-01T09:51:56.760Z,96.60
2019-05-01T09:54:42.956Z,96.40
2019-05-01T09:57:10.176Z,95.90
2019-05-01T09:59:39.718Z,94.20
2019-05-01T10:02:09.511Z,92.70
2019-05-01T10:04:39.057Z,92.10
2019-05-01T10:07:09.057Z,92.10
2019-05-01T10:09:38.550Z,91.30
2019-05-01T10:12:11.464Z,92.10
2019-05-01T10:14:39.155Z,90.40
2019-05-01T10:17:08.673Z,89.40
2019-05-01T10:19:38.327Z,87.50
2019-05-01T10:22:07.872Z,90.00
2019-05-01T10:24:39.233Z,90.80
2019-05-01T10:27:10.342Z,91.30
2019-05-01T10:30:10.694Z,91.10
2019-05-01T10:32:43.205Z,91.60
2019-05-01T10:35:42.468Z,92.00
2019-05-01T10:38:04.727Z,91.90
2019-05-01T10:40:35.273Z,92.10
2019-05-01T10:43:04.886Z,92.20
2019-05-01T10:45:34.481Z,93.20
2019-05-01T10:48:04.060Z,93.80
2019-05-01T10:50:33.547Z,93.00
2019-05-01T10:53:03.009Z,93.50
2019-05-01T10:55:32.520Z,93.40
2019-05-01T10:58:03.420Z,93.10
2019-05-01T11:00:33.796Z,93.00
2019-05-01T11:03:03.250Z,92.80
2019-05-01T11:05:32.753Z,92.50
2019-05-01T11:08:02.322Z,92.60
2019-05-01T11:10:31.829Z,93.10
2019-05-01T11:13:01.423Z,93.20
2019-05-01T11:15:30.908Z,94.40
2019-05-01T11:18:00.494Z,92.90
2019-05-01T11:20:30.001Z,90.70
2019-05-01T11:22:59.533Z,91.10
2019-05-01T11:25:29.302Z,90.70
2019-05-01T11:27:59.014Z,86.10
2019-05-01T11:30:28.493Z,85.90
2019-05-01T11:33:19.240Z,86.40
2019-05-01T11:36:13.567Z,87.20
2019-05-01T11:39:04.670Z,87.30
2019-05-01T11:41:51.474Z,88.90
2019-05-01T11:44:21.053Z,89.90
2019-05-01T11:46:50.489Z,90.40
2019-05-01T11:49:19.828Z,90.30
2019-05-01T11:51:49.171Z,90.70
2019-05-01T11:54:18.546Z,90.80
2019-05-01T11:56:48.103Z,91.30
2019-05-01T11:59:17.580Z,91.40
2019-05-01T12:01:47.007Z,91.50
2019-05-01T12:04:16.389Z,91.60
2019-05-01T12:06:45.730Z,90.50
2019-05-01T12:09:15.259Z,90.40
2019-05-01T12:11:46.287Z,90.20
2019-05-01T12:14:15.795Z,90.40
2019-05-01T12:17:16.422Z,90.80
2019-05-01T12:19:45.882Z,91.20
2019-05-01T12:22:15.336Z,90.90
2019-05-01T12:24:44.785Z,92.00
2019-05-01T12:27:14.197Z,93.60
2019-05-01T12:29:43.559Z,92.60
2019-05-01T12:32:13.051Z,92.00
2019-05-01T12:34:42.492Z,91.50
2019-05-01T12:37:17.979Z,90.60
2019-05-01T12:39:47.392Z,91.70
2019-05-01T12:42:17.840Z,90.60
2019-05-01T12:44:47.221Z,90.20
2019-05-01T12:47:34.533Z,90.70
2019-05-01T12:50:04.183Z,91.60
2019-05-01T12:52:52.429Z,90.60
2019-05-01T12:55:28.454Z,91.60
2019-05-01T12:57:57.852Z,92.60
2019-05-01T13:00:41.409Z,92.30
2019-05-01T13:03:11.235Z,92.70
2019-05-01T13:05:40.674Z,93.10
2019-05-01T13:08:10.067Z,92.90
2019-05-01T13:10:39.462Z,92.70
2019-05-01T13:13:11.118Z,92.60
2019-05-01T13:15:40.027Z,93.00
2019-05-01T13:18:09.453Z,92.10
2019-05-01T13:20:38.798Z,91.60
2019-05-01T13:23:08.325Z,91.90
2019-05-01T13:25:37.796Z,91.70
2019-05-01T13:28:26.132Z,93.30
2019-05-01T13:31:02.363Z,93.00
2019-05-01T13:33:31.859Z,91.90
2019-05-01T13:36:01.422Z,92.20
2019-05-01T13:38:30.806Z,92.00
2019-05-01T13:41:00.213Z,91.90
2019-05-01T13:43:29.744Z,92.10
2019-05-01T13:45:59.267Z,92.60
2019-05-01T13:48:28.820Z,91.00
2019-05-01T13:50:58.430Z,88.30
2019-05-01T13:53:27.986Z,88.70
2019-05-01T13:55:58.182Z,89.60
2019-05-01T13:58:27.681Z,90.30
2019-05-01T14:00:57.172Z,91.60
2019-05-01T14:03:30.442Z,92.70
2019-05-01T14:06:00.756Z,92.70
2019-05-01T14:08:30.388Z,90.30
2019-05-01T14:11:03.661Z,89.10
2019-05-01T14:13:33.112Z,91.20
2019-05-01T14:16:02.587Z,91.70
2019-05-01T14:18:32.036Z,92.70
2019-05-01T14:21:16.052Z,92.60
2019-05-01T14:24:04.402Z,92.70
2019-05-01T14:26:34.242Z,93.10
2019-05-01T14:29:03.862Z,92.70
2019-05-01T14:31:33.247Z,92.90
2019-05-01T14:34:02.713Z,94.20
2019-05-01T14:36:32.196Z,94.50
2019-05-01T14:39:02.724Z,95.00
2019-05-01T14:41:32.092Z,95.90
2019-05-01T14:44:01.555Z,95.30
2019-05-01T14:46:30.949Z,94.60
2019-05-01T14:49:00.320Z,94.50
2019-05-01T14:51:29.775Z,94.10
2019-05-01T14:53:59.277Z,94.50
2019-05-01T14:56:28.684Z,94.50
2019-05-01T14:58:58.083Z,94.80
2019-05-01T15:01:27.416Z,94.30
2019-05-01T15:03:56.806Z,94.70
2019-05-01T15:06:26.288Z,94.90
2019-05-01T15:08:55.751Z,96.20
2019-05-01T15:11:25.174Z,95.50
2019-05-01T15:14:02.745Z,95.70
2019-05-01T15:16:46.778Z,95.60
2019-05-01T15:19:18.784Z,96.00
2019-05-01T15:21:48.230Z,95.70
2019-05-01T15:24:17.567Z,95.30
2019-05-01T15:26:47.339Z,96.00
2019-05-01T15:29:16.851Z,96.70
2019-05-01T15:31:46.269Z,97.40
2019-05-01T15:34:15.677Z,97.80
2019-05-01T15:36:45.175Z,98.50
2019-05-01T15:39:22.057Z,99.10
2019-05-01T15:42:13.973Z,99.70
2019-05-01T15:44:44.734Z,99.60
2019-05-01T15:47:14.397Z,99.60
2019-05-01T15:49:44.172Z,99.20
2019-05-01T15:52:13.678Z,99.30
2019-05-01T15:54:43.113Z,99.60
2019-05-01T15:57:12.549Z,98.80
2019-05-01T15:59:41.987Z,98.90
2019-05-01T16:02:11.490Z,98.90
2019-05-01T16:04:40.891Z,98.30
2019-05-01T16:07:10.277Z,98.50
2019-05-01T16:09:39.785Z,98.40
2019-05-01T16:12:27.061Z,98.40
2019-05-01T16:14:56.524Z,99.00
2019-05-01T16:17:25.938Z,98.60
2019-05-01T16:19:55.347Z,99.30
2019-05-01T16:22:24.933Z,99.50
2019-05-01T16:24:54.386Z,99.70
2019-05-01T16:27:23.823Z,99.90
2019-05-01T16:29:53.323Z,99.90
2019-05-01T16:32:22.749Z,99.90
2019-05-01T16:34:52.166Z,99.90
2019-05-01T16:37:21.602Z,99.90
2019-05-01T16:40:16.058Z,99.90
2019-05-01T16:42:45.582Z,99.90
2019-05-01T16:45:15.593Z,99.90
2019-05-01T16:47:45.021Z,99.90
2019-05-01T16:50:14.695Z,99.90
2019-05-01T16:52:44.514Z,99.90
2019-05-01T16:55:14.993Z,99.90
2019-05-01T16:57:44.528Z,99.90
2019-05-01T17:00:14.863Z,99.90
2019-05-01T17:03:10.642Z,99.90
2019-05-01T17:06:05.178Z,99.90
2019-05-01T17:08:41.059Z,99.90
2019-05-01T17:11:11.398Z,99.90
2019-05-01T17:13:41.007Z,99.90
2019-05-01T17:16:10.749Z,99.90
2019-05-01T17:18:40.376Z,99.90
2019-05-01T17:21:09.858Z,99.90
2019-05-01T17:23:39.316Z,99.90
2019-05-01T17:26:08.991Z,99.90
2019-05-01T17:28:38.689Z,99.90
2019-05-01T17:31:08.979Z,99.90
2019-05-01T17:33:38.562Z,99.90
2019-05-01T17:36:08.530Z,99.90
2019-05-01T17:38:49.202Z,99.90
2019-05-01T17:41:11.693Z,99.90
2019-05-01T17:43:44.646Z,99.90
2019-05-01T17:46:12.648Z,99.90
2019-05-01T17:48:42.410Z,99.90
2019-05-01T17:51:12.030Z,99.90
2019-05-01T17:53:41.814Z,99.90
2019-05-01T17:56:15.354Z,99.90
2019-05-01T17:58:49.883Z,99.90
2019-05-01T18:01:51.044Z,99.90
2019-05-01T18:04:37.913Z,99.90
2019-05-01T18:07:09.830Z,99.90
2019-05-01T18:09:55.375Z,99.90
2019-05-01T18:12:37.024Z,99.90
2019-05-01T18:15:11.865Z,99.90
2019-05-01T18:17:43.501Z,99.90
2019-05-01T18:20:18.418Z,99.90
2019-05-01T18:23:12.470Z,99.90
2019-05-01T18:25:57.207Z,99.90
2019-05-01T18:28:37.191Z,99.90
2019-05-01T18:31:13.489Z,99.90
2019-05-01T18:33:47.769Z,99.90
2019-05-01T18:36:24.650Z,99.90
2019-05-01T18:39:15.763Z,99.90
2019-05-01T18:41:53.788Z,99.90
2019-05-01T18:44:24.426Z,99.90
2019-05-01T18:47:02.376Z,99.90
2019-05-01T18:49:35.875Z,99.90
2019-05-01T18:52:06.790Z,99.90
2019-05-01T18:54:38.091Z,99.90
2019-05-01T18:57:09.828Z,99.90
2019-05-01T18:59:46.945Z,99.90
2019-05-01T19:02:20.519Z,99.90
2019-05-01T19:04:54.367Z,99.90
2019-05-01T19:07:27.446Z,99.90
2019-05-01T19:10:03.067Z,99.90
2019-05-01T19:12:34.261Z,99.90
2019-05-01T19:15:16.513Z,99.90
2019-05-01T19:17:49.301Z,99.90
2019-05-01T19:20:28.405Z,99.90
2019-05-01T19:23:01.610Z,99.90
2019-05-01T19:25:43.581Z,99.90
2019-05-01T19:28:14.824Z,99.90
2019-05-01T19:30:44.638Z,99.90
2019-05-01T19:33:19.027Z,99.90
2019-05-01T19:35:56.882Z,99.90
2019-05-01T19:38:29.489Z,99.90
2019-05-01T19:41:14.070Z,99.90
2019-05-01T19:43:49.525Z,99.90
2019-05-01T19:46:21.596Z,99.90
2019-05-01T19:49:00.952Z,99.90
2019-05-01T19:51:31.238Z,99.90
2019-05-01T19:54:00.968Z,99.90
2019-05-01T19:56:32.462Z,99.90
2019-05-01T19:59:02.375Z,99.90
2019-05-01T20:01:32.091Z,99.90
2019-05-01T20:04:08.582Z,99.90
2019-05-01T20:06:40.215Z,99.90
2019-05-01T20:09:09.944Z,99.90
2019-05-01T20:11:39.629Z,99.90
2019-05-01T20:14:09.425Z,99.90
2019-05-01T20:16:39.293Z,99.90
2019-05-01T20:19:08.892Z,99.90
2019-05-01T20:21:41.510Z,99.90
2019-05-01T20:24:10.629Z,99.90
2019-05-01T20:26:40.290Z,99.90
2019-05-01T20:29:09.829Z,99.90
2019-05-01T20:31:39.318Z,99.90
2019-05-01T20:34:12.082Z,99.90
2019-05-01T20:36:39.999Z,99.90
2019-05-01T20:39:10.091Z,99.90
2019-05-01T20:41:39.684Z,99.90
2019-05-01T20:44:10.003Z,99.90
2019-05-01T20:46:39.390Z,99.90
2019-05-01T20:49:10.281Z,99.90
2019-05-01T20:51:39.903Z,99.90
2019-05-01T20:54:10.128Z,99.90
2019-05-01T20:56:59.346Z,99.90
2019-05-01T20:59:35.186Z,99.90
2019-05-01T21:02:07.634Z,99.90
2019-05-01T21:04:50.803Z,99.90
2019-05-01T21:07:29.449Z,99.90
2019-05-01T21:09:59.323Z,99.90
2019-05-01T21:12:29.081Z,99.90
2019-05-01T21:14:58.593Z,99.90
2019-05-01T21:17:28.107Z,99.90
2019-05-01T21:19:57.816Z,99.90
2019-05-01T21:22:27.490Z,99.90
2019-05-01T21:24:57.374Z,99.90
2019-05-01T21:27:26.810Z,99.90
2019-05-01T21:29:56.450Z,99.90
2019-05-01T21:32:27.352Z,99.90
2019-05-01T21:34:57.225Z,99.90
2019-05-01T21:37:26.768Z,99.90
2019-05-01T21:39:56.630Z,99.90
2019-05-01T21:42:26.171Z,99.90
2019-05-01T21:44:56.016Z,99.90
2019-05-01T21:47:25.558Z,99.90
2019-05-01T21:49:55.258Z,99.90
2019-05-01T21:52:26.924Z,99.90
2019-05-01T21:54:57.112Z,99.90
2019-05-01T21:57:29.608Z,99.90
2019-05-01T21:59:58.020Z,99.90
2019-05-01T22:02:27.598Z,99.90
2019-05-01T22:04:56.998Z,99.90
2019-05-01T22:07:27.856Z,99.90
2019-05-01T22:09:57.550Z,99.90
2019-05-01T22:12:26.948Z,99.90
2019-05-01T22:14:59.748Z,99.90
2019-05-01T22:17:40.746Z,99.90
2019-05-01T22:20:11.520Z,99.90
2019-05-01T22:22:46.615Z,99.90
2019-05-01T22:25:41.118Z,99.90
2019-05-01T22:28:21.758Z,99.90
2019-05-01T22:31:00.941Z,99.90
2019-05-01T22:33:30.372Z,99.90
2019-05-01T22:35:59.693Z,99.90
2019-05-01T22:38:29.290Z,99.90
2019-05-01T22:41:08.987Z,99.90
2019-05-01T22:43:38.405Z,99.90
2019-05-01T22:46:10.501Z,99.90
2019-05-01T22:48:39.866Z,99.90
2019-05-01T22:51:27.506Z,99.90
2019-05-01T22:53:56.884Z,99.90
2019-05-01T22:56:26.407Z,99.90
2019-05-01T22:58:55.796Z,99.90
2019-05-01T23:01:26.406Z,99.90
2019-05-01T23:04:01.406Z,99.90
2019-05-01T23:06:30.800Z,99.90
2019-05-01T23:09:00.215Z,99.90
2019-05-01T23:11:31.982Z,99.90
2019-05-01T23:14:01.726Z,99.90
2019-05-01T23:16:35.585Z,99.90
2019-05-01T23:19:05.067Z,99.90
2019-05-01T23:21:34.460Z,99.90
2019-05-01T23:24:05.402Z,99.90
2019-05-01T23:26:35.360Z,99.90
2019-05-01T23:29:06.493Z,99.90
2019-05-01T23:31:36.189Z,99.90
2019-05-01T23:34:10.743Z,99.90
2019-05-01T23:36:40.340Z,99.90
2019-05-01T23:39:15.006Z,99.90
2019-05-01T23:41:46.784Z,99.90
2019-05-01T23:44:15.847Z,99.90
2019-05-01T23:46:45.400Z,99.90
2019-05-01T23:49:14.924Z,99.90
2019-05-01T23:51:44.588Z,99.90
2019-05-01T23:54:14.201Z,99.90
2019-05-01T23:56:43.797Z,99.90
2019-05-01T23:59:14.661Z,99.90
